Time;durP1;ratioP1;P1;durP2;ratioP2;P2;SDS_P1;SDS_P2;PMS_P1;PMS_P2;Temp;Humidity;BMP_temperature;BMP_pressure;BME280_temperature;BME280_humidity;BME280_pressure;Samples;Min_cycle;Max_cycle;Signal;HPM_P1;HPM_P2
2022/10/29 00:01:27;;;;;;;1999.90;999.90;;;;;;;13.57;100.00;101131.13;5003480;28;20049;-77
2022/10/29 00:03:52;;;;;;;1999.90;999.90;;;;;;;13.53;100.00;101134.69;5004811;28;20030;-77
2022/10/29 00:06:18;;;;;;;1999.90;999.90;;;;;;;13.51;100.00;101139.13;5002058;28;20042;-77
2022/10/29 00:08:43;;;;;;;1999.90;999.90;;;;;;;13.46;100.00;101132.97;5003704;28;20030;-77
2022/10/29 00:11:15;;;;;;;1999.90;999.90;;;;;;;13.45;100.00;101125.91;5005684;28;20038;-77
2022/10/29 00:13:41;;;;;;;1999.90;999.90;;;;;;;13.44;100.00;101131.22;5019311;28;20034;-77
2022/10/29 00:16:12;;;;;;;1999.90;999.90;;;;;;;13.44;100.00;101129.47;5006985;28;20096;-77
2022/10/29 00:18:38;;;;;;;1999.90;999.90;;;;;;;13.38;100.00;101135.69;5005858;28;20034;-77
2022/10/29 00:21:06;;;;;;;1999.90;999.90;;;;;;;13.35;100.00;101140.13;5005936;28;20452;-77
2022/10/29 00:23:32;;;;;;;1999.90;999.90;;;;;;;13.33;100.00;101141.91;5002543;28;20042;-77
2022/10/29 00:25:58;;;;;;;1999.90;999.90;;;;;;;13.29;100.00;101135.78;5004401;28;20153;-77
2022/10/29 00:28:23;;;;;;;1999.90;999.90;;;;;;;13.28;100.00;101133.13;5004140;28;20042;-77
2022/10/29 00:30:49;;;;;;;1999.90;999.90;;;;;;;13.28;100.00;101119.88;5006273;28;20053;-77
2022/10/29 00:33:15;;;;;;;1999.90;999.90;;;;;;;13.27;100.00;101120.75;5005192;28;20037;-77
2022/10/29 00:35:40;;;;;;;1999.90;999.90;;;;;;;13.30;100.00;101131.34;5002024;28;20039;-77
2022/10/29 00:38:05;;;;;;;1999.90;999.90;;;;;;;13.26;100.00;101127.84;5002482;28;20378;-77
2022/10/29 00:40:35;;;;;;;1999.90;999.90;;;;;;;13.23;100.00;101124.28;5004712;28;20396;-77
2022/10/29 00:43:12;;;;;;;1999.90;999.90;;;;;;;13.13;100.00;101119.06;5004013;28;20042;-77
2022/10/29 00:45:41;;;;;;;1999.90;999.90;;;;;;;13.09;100.00;101121.75;5004480;28;20042;-77
2022/10/29 00:48:07;;;;;;;1999.90;999.90;;;;;;;13.04;100.00;101126.19;5004291;28;20049;-77
2022/10/29 00:50:33;;;;;;;1999.90;999.90;;;;;;;12.97;100.00;101125.38;5004265;28;20038;-77
2022/10/29 00:52:59;;;;;;;1999.90;999.90;;;;;;;12.91;100.00;101118.31;5002296;28;20117;-77
2022/10/29 00:55:24;;;;;;;1999.90;999.90;;;;;;;12.88;100.00;101128.06;5004811;28;20484;-76
2022/10/29 00:57:52;;;;;;;1999.90;999.90;;;;;;;12.82;100.00;101128.13;5000345;28;20091;-77
2022/10/29 01:00:19;;;;;;;1999.90;999.90;;;;;;;12.74;100.00;101140.53;5004074;28;20042;-76
2022/10/29 01:02:45;;;;;;;1999.90;999.90;;;;;;;12.68;100.00;101137.00;5004850;28;20405;-76
2022/10/29 01:05:14;;;;;;;1999.90;999.90;;;;;;;12.58;100.00;101135.31;5004008;28;20034;-76
2022/10/29 01:07:39;;;;;;;1999.90;999.90;;;;;;;12.50;100.00;101137.97;5001408;28;20038;-76
2022/10/29 01:10:05;;;;;;;1999.90;999.90;;;;;;;12.43;100.00;101154.78;5001780;28;20041;-76
2022/10/29 01:12:54;;;;;;;1999.90;999.90;;;;;;;12.39;100.00;101152.13;5003761;28;20124;-77
2022/10/29 01:15:33;;;;;;;1999.90;999.90;;;;;;;12.39;100.00;101154.78;4996348;28;20504;-76
2022/10/29 01:18:09;;;;;;;1999.90;999.90;;;;;;;12.36;100.00;101150.38;5005475;28;20408;-76
2022/10/29 01:20:53;;;;;;;1999.90;999.90;;;;;;;12.43;100.00;101140.66;5002577;28;20042;-76
2022/10/29 01:23:42;;;;;;;1999.90;999.90;;;;;;;12.52;100.00;101150.31;5001793;28;20124;-76
2022/10/29 01:26:26;;;;;;;1999.90;999.90;;;;;;;12.53;100.00;101146.81;5001668;28;20045;-76
2022/10/29 01:29:03;;;;;;;1999.90;999.90;;;;;;;12.52;100.00;101153.84;5001167;28;20390;-76
2022/10/29 01:31:31;;;;;;;1999.90;999.90;;;;;;;12.53;100.00;101152.97;5000882;28;20515;-76
2022/10/29 01:34:03;;;;;;;1999.90;999.90;;;;;;;12.56;100.00;101149.44;5004058;28;20113;-76
2022/10/29 01:36:47;;;;;;;1999.90;999.90;;;;;;;12.60;100.00;101153.81;5000326;28;20045;-76
2022/10/29 01:39:43;;;;;;;1999.90;999.90;;;;;;;12.65;100.00;101150.28;5004223;28;20037;-76
2022/10/29 01:42:22;;;;;;;1999.90;999.90;;;;;;;12.70;100.00;101159.06;5001663;28;20038;-76
2022/10/29 01:45:23;;;;;;;1999.90;999.90;;;;;;;12.74;100.00;101153.75;5000795;28;20045;-76
2022/10/29 01:48:04;;;;;;;1999.90;999.90;;;;;;;12.83;100.00;101149.28;4991951;28;20057;-76
2022/10/29 01:50:31;;;;;;;1999.90;999.90;;;;;;;12.98;100.00;101148.31;5008633;28;20044;-76
2022/10/29 01:52:57;;;;;;;1999.90;999.90;;;;;;;13.13;100.00;101150.88;5009231;28;20079;-76
2022/10/29 01:55:28;;;;;;;1999.90;999.90;;;;;;;13.28;100.00;101144.63;5001812;28;20045;-76
2022/10/29 01:57:54;;;;;;;1999.90;999.90;;;;;;;13.42;100.00;101141.84;5002293;28;20046;-76
2022/10/29 02:00:20;;;;;;;1999.90;999.90;;;;;;;13.52;100.00;101140.88;5010186;28;20636;-76
2022/10/29 02:03:11;;;;;;;1999.90;999.90;;;;;;;13.64;100.00;101142.53;5003540;28;20042;-76
2022/10/29 02:05:49;;;;;;;1999.90;999.90;;;;;;;13.71;100.00;101159.28;4997727;28;20052;-76
2022/10/29 02:08:27;;;;;;;1999.90;999.90;;;;;;;13.68;100.00;101156.69;5003043;28;20037;-76
2022/10/29 02:10:59;;;;;;;1999.90;999.90;;;;;;;13.55;100.00;101140.84;5000317;28;20038;-76
2022/10/29 02:13:30;;;;;;;1999.90;999.90;;;;;;;13.58;100.00;101151.44;5001314;28;20085;-76
2022/10/29 02:15:59;;;;;;;1999.90;999.90;;;;;;;13.59;100.00;101154.97;5004241;28;20501;-76
2022/10/29 02:18:24;;;;;;;1999.90;999.90;;;;;;;13.58;100.00;101154.09;5002471;28;20068;-76
2022/10/29 02:20:50;;;;;;;1999.90;999.90;;;;;;;13.64;100.00;101149.63;5001764;28;20069;-76
2022/10/29 02:23:16;;;;;;;1999.90;999.90;;;;;;;13.64;100.00;101153.16;5004750;28;20041;-76
2022/10/29 02:25:41;;;;;;;1999.90;999.90;;;;;;;13.67;100.00;101155.78;5004728;28;20030;-76
2022/10/29 02:28:06;;;;;;;1999.90;999.90;;;;;;;13.69;100.00;101150.47;5000146;28;20033;-76
2022/10/29 02:30:32;;;;;;;1999.90;999.90;;;;;;;13.68;100.00;101154.03;5003154;28;20449;-76
2022/10/29 02:32:57;;;;;;;1999.90;999.90;;;;;;;13.67;100.00;101153.13;4999782;28;20401;-76
2022/10/29 02:35:23;;;;;;;1999.90;999.90;;;;;;;13.61;100.00;101161.13;5003080;28;20053;-76
2022/10/29 02:37:48;;;;;;;1999.90;999.90;;;;;;;13.50;100.00;101165.66;5004787;28;20056;-76
2022/10/29 02:40:13;;;;;;;1999.90;999.90;;;;;;;13.44;100.00;101171.91;5003198;28;20033;-76
2022/10/29 02:42:39;;;;;;;1999.90;999.90;;;;;;;13.40;100.00;101170.16;5006648;28;20671;-76
2022/10/29 02:45:04;;;;;;;1999.90;999.90;;;;;;;13.42;100.00;101173.69;4999904;28;20739;-76
2022/10/29 02:47:30;;;;;;;1999.90;999.90;;;;;;;13.50;100.00;101171.84;5002348;28;20556;-76
2022/10/29 02:49:55;;;;;;;1999.90;999.90;;;;;;;13.56;100.00;101174.44;5001160;28;20124;-76
2022/10/29 02:52:20;;;;;;;1999.90;999.90;;;;;;;13.62;100.00;101177.94;5001238;28;20127;-76
2022/10/29 02:54:46;;;;;;;1999.90;999.90;;;;;;;13.67;100.00;101181.41;4997583;28;20046;-76
2022/10/29 02:57:11;;;;;;;1999.90;999.90;;;;;;;13.69;100.00;101182.28;5002606;28;20508;-76
2022/10/29 02:59:36;;;;;;;1999.90;999.90;;;;;;;13.74;100.00;101180.47;5003777;28;20393;-76
2022/10/29 03:02:02;;;;;;;1999.90;999.90;;;;;;;13.82;100.00;101183.94;5000051;28;20516;-76
2022/10/29 03:04:27;;;;;;;1999.90;999.90;;;;;;;13.86;100.00;101184.78;5002285;28;20493;-76
2022/10/29 03:06:52;;;;;;;1999.90;999.90;;;;;;;13.92;100.00;101196.22;4999222;28;20030;-76
2022/10/29 03:09:18;;;;;;;1999.90;999.90;;;;;;;13.94;100.00;101189.16;5001707;28;20405;-76
2022/10/29 03:11:43;;;;;;;1999.90;999.90;;;;;;;13.96;100.00;101200.63;5003639;28;20595;-76
2022/10/29 03:14:08;;;;;;;1999.90;999.90;;;;;;;14.01;100.00;101195.25;4999953;28;20460;-76
2022/10/29 03:16:34;;;;;;;1999.90;999.90;;;;;;;14.02;100.00;101197.91;5005625;28;20436;-76
2022/10/29 03:18:59;;;;;;;1999.90;999.90;;;;;;;14.01;100.00;101201.44;5004071;28;20045;-76
2022/10/29 03:21:24;;;;;;;1999.90;999.90;;;;;;;13.88;100.00;101199.78;5005632;28;20029;-76
2022/10/29 03:23:50;;;;;;;1999.90;999.90;;;;;;;13.85;100.00;101199.81;5004949;28;20409;-76
2022/10/29 03:26:15;;;;;;;1999.90;999.90;;;;;;;13.83;100.00;101191.00;5003556;28;20385;-76
2022/10/29 03:28:40;;;;;;;1999.90;999.90;;;;;;;13.82;100.00;101199.88;5013259;28;20408;-76
2022/10/29 03:31:06;;;;;;;1999.90;999.90;;;;;;;13.80;100.00;101193.69;5005321;28;20516;-76
2022/10/29 03:33:31;;;;;;;1999.90;999.90;;;;;;;13.73;100.00;101194.66;5003135;28;20551;-76
2022/10/29 03:35:57;;;;;;;1999.90;999.90;;;;;;;13.66;100.00;101193.81;5009470;28;20099;-76
2022/10/29 03:38:23;;;;;;;1999.90;999.90;;;;;;;13.59;100.00;101198.28;5008389;28;20053;-76
2022/10/29 03:40:48;;;;;;;1999.90;999.90;;;;;;;13.54;100.00;101205.38;5004702;28;20037;-76
2022/10/29 03:43:13;;;;;;;1999.90;999.90;;;;;;;13.47;100.00;101205.47;5008511;28;20492;-76
2022/10/29 03:45:39;;;;;;;1999.90;999.90;;;;;;;13.37;100.00;101197.56;5003044;28;20504;-76
2022/10/29 03:48:04;;;;;;;1999.90;999.90;;;;;;;13.26;100.00;101203.81;5006465;28;20112;-77
2022/10/29 03:50:30;;;;;;;1999.90;999.90;;;;;;;13.18;100.00;101213.56;5003390;28;20124;-76
2022/10/29 03:52:55;;;;;;;1999.90;999.90;;;;;;;13.12;100.00;101212.69;5005355;28;20096;-76
2022/10/29 03:55:20;;;;;;;1999.90;999.90;;;;;;;13.04;100.00;101203.91;5004271;28;20078;-76
2022/10/29 03:57:45;;;;;;;1999.90;999.90;;;;;;;12.98;100.00;101201.31;5004042;28;20088;-76
2022/10/29 04:00:11;;;;;;;1999.90;999.90;;;;;;;12.90;100.00;101206.66;5006045;28;20034;-76
2022/10/29 04:02:40;;;;;;;1999.90;999.90;;;;;;;12.84;100.00;101209.34;5006140;28;20042;-76
2022/10/29 04:05:05;;;;;;;1999.90;999.90;;;;;;;12.79;100.00;101207.59;5002722;28;20045;-76
2022/10/29 04:07:31;;;;;;;1999.90;999.90;;;;;;;12.76;100.00;101207.59;5001919;28;20048;-76
2022/10/29 04:09:56;;;;;;;1999.90;999.90;;;;;;;12.75;100.00;101205.84;5004265;28;20121;-76
2022/10/29 04:12:21;;;;;;;1999.90;999.90;;;;;;;12.69;100.00;101212.91;5003583;28;20077;-76
2022/10/29 04:14:47;;;;;;;1999.90;999.90;;;;;;;12.64;100.00;101212.06;5005217;28;20042;-76
2022/10/29 04:17:12;;;;;;;1999.90;999.90;;;;;;;12.59;100.00;101210.31;5005324;28;20061;-76
2022/10/29 04:19:37;;;;;;;1999.90;999.90;;;;;;;12.53;100.00;101208.56;5006853;28;20496;-76
2022/10/29 04:22:03;;;;;;;1999.90;999.90;;;;;;;12.51;100.00;101215.63;5002832;28;20138;-77
2022/10/29 04:24:28;;;;;;;1999.90;999.90;;;;;;;12.47;100.00;101232.41;5004303;28;20045;-76
2022/10/29 04:26:53;;;;;;;1999.90;999.90;;;;;;;12.43;100.00;101230.66;5006412;28;20092;-76
2022/10/29 04:29:19;;;;;;;1999.90;999.90;;;;;;;12.40;100.00;101230.69;5003287;28;20034;-76
2022/10/29 04:31:44;;;;;;;1999.90;999.90;;;;;;;12.37;100.00;101228.03;5005738;28;20042;-76
2022/10/29 04:34:09;;;;;;;1999.90;999.90;;;;;;;12.33;100.00;101231.56;5002081;28;20045;-76
2022/10/29 04:36:35;;;;;;;1999.90;999.90;;;;;;;12.26;100.00;101226.31;5002792;28;20049;-76
2022/10/29 04:39:00;;;;;;;1999.90;999.90;;;;;;;12.21;100.00;101236.00;5002976;28;20042;-76
2022/10/29 04:41:25;;;;;;;1999.90;999.90;;;;;;;12.14;100.00;101239.53;5003910;28;20439;-76
2022/10/29 04:43:51;;;;;;;1999.90;999.90;;;;;;;12.07;100.00;101245.72;5005757;28;20034;-76
2022/10/29 04:46:16;;;;;;;1999.90;999.90;;;;;;;12.00;100.00;101249.28;5002584;28;20042;-78
2022/10/29 04:48:41;;;;;;;1999.90;999.90;;;;;;;11.95;100.00;101251.03;5009150;28;20049;-76
2022/10/29 04:51:17;;;;;;;1999.90;999.90;;;;;;;11.91;100.00;101254.53;5008560;28;20041;-76
2022/10/29 04:53:42;;;;;;;1999.90;999.90;;;;;;;11.90;100.00;101250.16;5005333;28;20210;-77
2022/10/29 04:56:08;;;;;;;1999.90;999.90;;;;;;;11.88;100.00;101251.91;5006374;28;20072;-77
2022/10/29 04:58:33;;;;;;;1999.90;999.90;;;;;;;11.84;100.00;101243.94;5006531;28;20042;-76
2022/10/29 05:01:03;;;;;;;1999.90;999.90;;;;;;;11.81;100.00;101233.34;5005838;28;20124;-77
2022/10/29 05:03:32;;;;;;;1999.90;999.90;;;;;;;11.78;100.00;101230.69;5003013;28;20061;-76
2022/10/29 05:06:00;;;;;;;1999.90;999.90;;;;;;;11.75;100.00;101237.75;5005706;28;20485;-76
2022/10/29 05:08:26;;;;;;;1999.90;999.90;;;;;;;11.73;100.00;101227.16;5004889;28;20515;-76
2022/10/29 05:10:51;;;;;;;1999.90;999.90;;;;;;;11.70;100.00;101226.31;5002799;28;20070;-76
2022/10/29 05:13:16;;;;;;;1999.90;999.90;;;;;;;11.68;100.00;101234.22;5006812;28;20034;-76
2022/10/29 05:15:42;;;;;;;1999.90;999.90;;;;;;;11.66;100.00;101236.00;5007494;28;20096;-76
2022/10/29 05:18:09;;;;;;;1999.90;999.90;;;;;;;11.58;100.00;101235.09;5002258;28;20026;-76
2022/10/29 05:20:34;;;;;;;1999.90;999.90;;;;;;;11.54;100.00;101238.63;5002367;28;20493;-76
2022/10/29 05:23:04;;;;;;;1999.90;999.90;;;;;;;11.52;100.00;101238.63;5002576;28;20048;-76
2022/10/29 05:25:31;;;;;;;1999.90;999.90;;;;;;;11.49;100.00;101235.97;5005735;28;20446;-76
2022/10/29 05:28:20;;;;;;;1999.90;999.90;;;;;;;11.45;100.00;101238.59;5003494;28;20029;-76
2022/10/29 05:30:50;;;;;;;1999.90;999.90;;;;;;;11.38;100.00;101241.25;5002124;28;20041;-76
2022/10/29 05:33:21;;;;;;;1999.90;999.90;;;;;;;11.35;100.00;101240.38;5002050;28;20041;-76
2022/10/29 05:35:47;;;;;;;1999.90;999.90;;;;;;;11.36;100.00;101245.63;5003426;28;20112;-76
2022/10/29 05:38:14;;;;;;;1999.90;999.90;;;;;;;11.36;100.00;101253.56;5001213;28;20093;-76
2022/10/29 05:40:41;;;;;;;1999.90;999.90;;;;;;;11.36;100.00;101240.34;5002303;28;20034;-76
2022/10/29 05:43:07;;;;;;;1999.90;999.90;;;;;;;11.31;100.00;101242.09;5002491;28;20053;-76
2022/10/29 05:45:32;;;;;;;1999.90;999.90;;;;;;;11.30;100.00;101248.28;5007824;28;20030;-75
2022/10/29 05:47:59;;;;;;;1999.90;999.90;;;;;;;11.29;100.00;101245.63;5001000;28;20042;-76
2022/10/29 05:50:25;;;;;;;1999.90;999.90;;;;;;;11.27;100.00;101240.34;5005749;28;20048;-76
2022/10/29 05:53:12;;;;;;;1999.90;999.90;;;;;;;11.29;100.00;101233.31;5005793;28;20090;-76
2022/10/29 05:55:38;;;;;;;1999.90;999.90;;;;;;;11.29;100.00;101235.97;5007820;28;20046;-76
2022/10/29 05:58:06;;;;;;;1999.90;999.90;;;;;;;11.30;100.00;101243.00;5002952;28;20040;-76
2022/10/29 06:00:34;;;;;;;1999.90;999.90;;;;;;;11.21;100.00;101250.88;5002605;28;20117;-75
2022/10/29 06:02:59;;;;;;;1999.90;999.90;;;;;;;11.18;100.00;101248.25;5000707;28;20038;-76
2022/10/29 06:05:25;;;;;;;1999.90;999.90;;;;;;;11.13;100.00;101250.88;5003432;28;20093;-74
2022/10/29 06:07:54;;;;;;;1999.90;999.90;;;;;;;11.11;100.00;101255.28;5000837;28;20046;-74
2022/10/29 06:10:20;;;;;;;1999.90;999.90;;;;;;;11.13;100.00;101255.25;5002372;28;20047;-74
2022/10/29 06:12:45;;;;;;;1999.90;999.90;;;;;;;11.11;100.00;101255.28;5002378;28;20038;-74
2022/10/29 06:15:10;;;;;;;1999.90;999.90;;;;;;;11.12;100.00;101249.09;5004133;28;20459;-74
2022/10/29 06:17:40;;;;;;;1999.90;999.90;;;;;;;11.17;100.00;101259.69;5000462;28;20362;-74
2022/10/29 06:20:06;;;;;;;1999.90;999.90;;;;;;;11.14;100.00;101255.28;5000981;28;20042;-74
2022/10/29 06:22:32;;;;;;;1999.90;999.90;;;;;;;11.20;100.00;101262.34;5003779;28;20045;-74
2022/10/29 06:24:57;;;;;;;1999.90;999.90;;;;;;;11.29;100.00;101261.47;5004150;28;20037;-74
2022/10/29 06:27:22;;;;;;;1999.90;999.90;;;;;;;11.37;100.00;101260.63;5005901;28;20049;-74
2022/10/29 06:29:48;;;;;;;1999.90;999.90;;;;;;;11.45;100.00;101252.72;5003826;28;20038;-74
2022/10/29 06:32:13;;;;;;;1999.90;999.90;;;;;;;11.48;100.00;101252.72;4997438;28;20037;-74
2022/10/29 06:34:38;;;;;;;1999.90;999.90;;;;;;;11.54;100.00;101244.78;4998537;28;20058;-75
2022/10/29 06:37:03;;;;;;;1999.90;999.90;;;;;;;11.59;100.00;101258.91;5003516;28;20038;-74
2022/10/29 06:39:29;;;;;;;1999.90;999.90;;;;;;;11.59;100.00;101265.97;5001886;28;20045;-74
2022/10/29 06:41:54;;;;;;;1999.90;999.90;;;;;;;11.60;100.00;101262.41;5000258;28;20037;-74
2022/10/29 06:44:19;;;;;;;1999.90;999.90;;;;;;;11.58;100.00;101272.09;4999184;28;20784;-74
2022/10/29 06:46:45;;;;;;;1999.90;999.90;;;;;;;11.66;100.00;101267.75;5003608;28;20042;-74
2022/10/29 06:49:10;;;;;;;1999.90;999.90;;;;;;;11.77;100.00;101268.63;5003045;28;20029;-74
2022/10/29 06:51:35;;;;;;;1999.90;999.90;;;;;;;11.90;100.00;101263.38;5012957;28;20034;-74
2022/10/29 06:54:01;;;;;;;1999.90;999.90;;;;;;;12.01;100.00;101272.19;5009713;28;20040;-74
2022/10/29 06:56:26;;;;;;;1999.90;999.90;;;;;;;12.14;100.00;101266.00;5013080;28;20030;-74
2022/10/29 06:58:51;;;;;;;1999.90;999.90;;;;;;;12.24;100.00;101262.47;5016907;28;20167;-74
2022/10/29 07:01:17;;;;;;;1999.90;999.90;;;;;;;12.36;100.00;101271.25;5016250;28;20415;-75
2022/10/29 07:03:42;;;;;;;1999.90;999.90;;;;;;;12.47;100.00;101269.47;5014754;28;20381;-73
2022/10/29 07:06:07;;;;;;;1999.90;999.90;;;;;;;12.55;100.00;101262.41;5012074;28;20395;-74
2022/10/29 07:08:33;;;;;;;1999.90;999.90;;;;;;;12.58;100.00;101264.19;5014575;28;20458;-74
2022/10/29 07:10:58;;;;;;;1999.90;999.90;;;;;;;12.64;100.00;101261.50;5017022;28;20512;-74
2022/10/29 07:13:23;;;;;;;1999.90;999.90;;;;;;;12.74;100.00;101257.06;5017117;28;20018;-74
2022/10/29 07:15:49;;;;;;;1999.90;999.90;;;;;;;12.82;100.00;101250.84;5016985;28;20037;-73
2022/10/29 07:18:14;;;;;;;1999.90;999.90;;;;;;;12.92;100.00;101255.22;5017259;28;20039;-74
2022/10/29 07:20:43;;;;;;;1999.90;999.90;;;;;;;13.03;100.00;101256.94;5017181;28;20104;-74
2022/10/29 07:23:09;;;;;;;1999.90;999.90;;;;;;;13.12;100.00;101268.34;5014557;28;20030;-74
2022/10/29 07:25:35;;;;;;;1999.90;999.90;;;;;;;13.18;100.00;101259.53;5016794;28;20114;-74
2022/10/29 07:28:02;;;;;;;1999.90;999.90;;;;;;;13.22;100.00;101263.03;5017086;28;20042;-75
2022/10/29 07:30:28;;;;;;;1999.90;999.90;;;;;;;13.31;100.00;101258.59;5016806;28;20555;-75
2022/10/29 07:32:53;;;;;;;1999.90;999.90;;;;;;;13.43;100.00;101265.56;5015550;28;20057;-74
2022/10/29 07:35:18;;;;;;;1999.90;999.90;;;;;;;13.56;100.00;101267.25;5016855;28;20483;-74
2022/10/29 07:37:44;;;;;;;1999.90;999.90;;;;;;;13.72;100.00;101262.72;5014628;28;20045;-74
2022/10/29 07:40:09;;;;;;;1999.90;999.90;;;;;;;13.88;100.00;101259.94;5012322;28;20041;-74
2022/10/29 07:42:35;;;;;;;1999.90;999.90;;;;;;;14.04;100.00;101258.91;5016758;28;20095;-74
2022/10/29 07:45:00;;;;;;;1999.90;999.90;;;;;;;14.21;100.00;101246.38;5016937;28;20403;-75
2022/10/29 07:47:25;;;;;;;1999.90;999.90;;;;;;;14.38;100.00;101254.19;5017019;28;20455;-75
2022/10/29 07:49:51;;;;;;;1999.90;999.90;;;;;;;14.53;100.00;101253.16;5013344;28;20041;-76
2022/10/29 07:52:16;;;;;;;1999.90;999.90;;;;;;;14.66;100.00;101256.56;5009227;28;20034;-74
2022/10/29 07:54:41;;;;;;;1999.90;999.90;;;;;;;14.80;100.00;101253.75;5010412;28;20037;-74
2022/10/29 07:57:07;;;;;;;1999.90;999.90;;;;;;;14.93;100.00;101246.50;5014307;28;20042;-74
2022/10/29 07:59:32;;;;;;;1999.90;999.90;;;;;;;15.00;100.00;101253.50;5011247;28;20037;-74
2022/10/29 08:01:57;;;;;;;1999.90;999.90;;;;;;;15.10;100.00;101255.16;5004223;28;20081;-74
2022/10/29 08:04:23;;;;;;;1999.90;999.90;;;;;;;15.20;100.00;101258.56;5005182;28;20034;-74
2022/10/29 08:06:48;;;;;;;1999.90;999.90;;;;;;;15.30;100.00;101261.06;5008494;28;20088;-74
2022/10/29 08:09:13;;;;;;;1999.90;999.90;;;;;;;15.45;100.00;101261.75;5007721;28;20514;-74
2022/10/29 08:11:38;;;;;;;1999.90;999.90;;;;;;;15.59;100.00;101259.78;5004064;28;20472;-74
2022/10/29 08:14:04;;;;;;;1999.90;999.90;;;;;;;15.75;100.00;101263.09;5003452;28;20407;-74
2022/10/29 08:16:30;;;;;;;1999.90;999.90;;;;;;;15.89;100.00;101268.19;5008175;28;20523;-74
2022/10/29 08:18:55;;;;;;;1999.90;999.90;;;;;;;16.07;100.00;101259.91;5004037;28;20449;-74
2022/10/29 08:21:21;;;;;;;1999.90;999.90;;;;;;;16.21;100.00;101259.66;5011411;28;20025;-74
2022/10/29 08:23:46;;;;;;;1999.90;999.90;;;;;;;16.29;99.68;101257.72;5005358;28;20432;-74
2022/10/29 08:26:12;;;;;;;1999.90;999.90;;;;;;;16.39;98.96;101258.44;5006362;28;20066;-74
2022/10/29 08:28:37;;;;;;;1999.90;999.90;;;;;;;16.52;97.91;101249.31;5004045;28;20077;-74
2022/10/29 08:31:03;;;;;;;1999.90;999.90;;;;;;;16.63;97.26;101246.44;5004921;28;20033;-74
2022/10/29 08:33:28;;;;;;;1999.90;999.90;;;;;;;16.79;96.52;101244.38;5009823;28;20575;-74
2022/10/29 08:35:53;;;;;;;1999.90;999.90;;;;;;;16.83;95.33;101238.94;4998948;28;20073;-74
2022/10/29 08:38:22;;;;;;;1999.90;999.90;;;;;;;16.95;94.51;101248.50;5010439;28;20049;-74
2022/10/29 08:41:21;;;;;;;1999.90;999.90;;;;;;;17.01;92.72;101253.69;5008478;28;20035;-74
2022/10/29 08:44:19;;;;;;;1999.90;999.90;;;;;;;17.14;91.72;101248.97;5005190;28;20042;-74
2022/10/29 08:46:47;;;;;;;1999.90;999.90;;;;;;;17.25;90.58;101254.06;5005081;28;20038;-74
2022/10/29 08:49:19;;;;;;;1999.90;999.90;;;;;;;17.35;91.42;101247.63;5002399;28;20113;-74
2022/10/29 08:51:51;;;;;;;1999.90;999.90;;;;;;;17.47;91.16;101238.44;5003151;28;20099;-74
2022/10/29 08:54:16;;;;;;;;;;;;;;;17.55;89.52;101241.78;5005615;28;20084;-74
2022/10/29 08:56:50;;;;;;;1999.90;999.90;;;;;;;17.59;88.59;101246.16;5001819;28;19914;-74
2022/10/29 08:59:24;;;;;;;1999.90;999.90;;;;;;;17.58;87.68;101244.41;5005366;28;20045;-74
2022/10/29 09:01:54;;;;;;;1999.90;999.90;;;;;;;17.62;89.12;101243.41;5001630;28;20482;-74
2022/10/29 09:04:25;;;;;;;1999.90;999.90;;;;;;;17.73;88.96;101233.34;5003856;28;20045;-74
2022/10/29 09:06:59;;;;;;;1999.90;999.90;;;;;;;17.85;88.15;101248.22;5000887;28;20050;-74
2022/10/29 09:09:37;;;;;;;1999.90;999.90;;;;;;;17.93;88.13;101248.91;5001954;28;20044;-74
2022/10/29 09:12:11;;;;;;;1999.90;999.90;;;;;;;17.99;86.38;101236.31;5000722;28;20038;-74
2022/10/29 09:15:10;;;;;;;1999.90;999.90;;;;;;;18.07;87.50;101247.69;5001535;28;20124;-74
2022/10/29 09:17:54;;;;;;;1999.90;999.90;;;;;;;18.10;86.62;101243.16;5008131;28;20041;-74
2022/10/29 09:20:42;;;;;;;1999.90;999.90;;;;;;;18.20;86.51;101246.44;5005897;28;20050;-74
2022/10/29 09:23:21;;;;;;;1999.90;999.90;;;;;;;18.35;86.60;101237.16;5005185;28;20045;-74
2022/10/29 09:25:52;;;;;;;1999.90;999.90;;;;;;;18.55;85.93;101233.94;5004380;28;20037;-74
2022/10/29 09:28:34;;;;;;;1999.90;999.90;;;;;;;18.64;83.68;101225.63;5002163;28;20049;-74
2022/10/29 09:31:24;;;;;;;1999.90;999.90;;;;;;;18.76;84.26;101233.34;5022590;22;20053;-75
2022/10/29 09:33:52;;;;;;;1999.90;999.90;;;;;;;18.92;84.12;101243.59;5017896;28;20049;-75
2022/10/29 09:36:22;;;;;;;1999.90;999.90;;;;;;;19.01;83.40;101232.63;5017724;28;20156;-75
2022/10/29 09:38:58;;;;;;;1999.90;999.90;;;;;;;19.21;83.86;101232.91;5021221;28;20099;-75
2022/10/29 09:41:29;;;;;;;1999.90;999.90;;;;;;;19.39;81.82;101241.28;5017424;28;20053;-75
2022/10/29 09:44:19;;;;;;;1999.90;999.90;;;;;;;19.45;80.88;101249.09;5022228;28;20132;-75
2022/10/29 09:47:11;;;;;;;1999.90;999.90;;;;;;;19.63;80.62;101245.84;5020082;28;20045;-75
2022/10/29 09:49:56;;;;;;;1999.90;999.90;;;;;;;19.61;78.70;101245.00;5020004;28;20570;-75
2022/10/29 09:52:29;;;;;;;1999.90;999.90;;;;;;;19.66;79.30;101243.09;5017867;28;20029;-75
2022/10/29 09:54:58;;;;;;;1999.90;999.90;;;;;;;19.66;80.01;101232.38;5020455;28;20026;-75
2022/10/29 09:57:29;;;;;;;1999.90;999.90;;;;;;;19.74;79.77;101233.94;5017049;28;20041;-75
2022/10/29 10:00:00;;;;;;;1999.90;999.90;;;;;;;19.78;79.43;101230.22;5016861;28;20048;-75
2022/10/29 10:02:43;;;;;;;1999.90;999.90;;;;;;;19.77;77.62;101231.16;5022292;28;20553;-75
2022/10/29 10:05:11;;;;;;;1999.90;999.90;;;;;;;19.72;79.01;101225.06;5018352;28;20095;-75
2022/10/29 10:07:37;;;;;;;1999.90;999.90;;;;;;;19.70;79.18;101223.34;5021966;28;20037;-75
2022/10/29 10:10:05;;;;;;;1999.90;999.90;;;;;;;19.76;79.00;101226.75;5016441;28;20044;-75
2022/10/29 10:12:36;;;;;;;1999.90;999.90;;;;;;;19.77;78.75;101217.75;5022475;28;20041;-75
2022/10/29 10:15:05;;;;;;;1999.90;999.90;;;;;;;19.86;78.30;101223.69;5022463;28;20045;-75
2022/10/29 10:18:00;;;;;;;1999.90;999.90;;;;;;;20.04;77.50;101222.19;5018233;28;20091;-75
2022/10/29 10:20:34;;;;;;;1999.90;999.90;;;;;;;20.12;76.75;101225.47;5016770;28;20488;-75
2022/10/29 10:23:00;;;;;;;1999.90;999.90;;;;;;;20.31;77.21;101214.97;5021234;28;20034;-75
2022/10/29 10:25:39;;;;;;;1999.90;999.90;;;;;;;20.35;75.11;101210.38;5021656;28;20079;-75
2022/10/29 10:28:25;;;;;;;1999.90;999.90;;;;;;;20.40;75.24;101218.25;5018772;28;20128;-75
2022/10/29 10:31:02;;;;;;;1999.90;999.90;;;;;;;20.39;75.89;101214.72;5017599;28;20034;-75
2022/10/29 10:33:27;;;;;;;1999.90;999.90;;;;;;;20.45;75.07;101210.94;5020095;28;20489;-75
2022/10/29 10:35:53;;;;;;;1999.90;999.90;;;;;;;20.51;75.52;101214.28;5022827;28;20040;-75
2022/10/29 10:38:20;;;;;;;1999.90;999.90;;;;;;;20.50;73.85;101212.50;5021650;28;20049;-75
2022/10/29 10:40:55;;;;;;;1999.90;999.90;;;;;;;20.46;73.27;101213.56;5016270;28;20030;-75
2022/10/29 10:43:23;;;;;;;1999.90;999.90;;;;;;;20.50;75.37;101217.88;5011288;28;20038;-75
2022/10/29 10:46:03;;;;;;;1999.90;999.90;;;;;;;20.51;74.00;101211.59;5015626;28;20021;-74
2022/10/29 10:48:28;;;;;;;1999.90;999.90;;;;;;;20.48;73.90;101209.00;5022332;28;20034;-75
2022/10/29 10:51:18;;;;;;;1999.90;999.90;;;;;;;20.58;74.66;101205.09;5019326;28;20535;-75